sensor_id;sensor_type;location;lat;lon;timestamp;P1;durP1;ratioP1;P2;durP2;ratioP2
32535;SDS011;18974;50.838;4.636;2023-03-19T00:02:00;10.55;;;5.28;;
32535;SDS011;18974;50.838;4.636;2023-03-19T00:04:25;14.93;;;5.20;;
32535;SDS011;18974;50.838;4.636;2023-03-19T00:06:51;8.30;;;4.43;;
32535;SDS011;18974;50.838;4.636;2023-03-19T00:09:18;10.68;;;4.30;;
32535;SDS011;18974;50.838;4.636;2023-03-19T00:11:45;7.55;;;3.80;;
32535;SDS011;18974;50.838;4.636;2023-03-19T00:14:11;5.60;;;3.15;;
32535;SDS011;18974;50.838;4.636;2023-03-19T00:16:36;6.22;;;4.03;;
32535;SDS011;18974;50.838;4.636;2023-03-19T00:19:02;6.15;;;3.83;;
32535;SDS011;18974;50.838;4.636;2023-03-19T00:21:28;5.50;;;3.15;;
32535;SDS011;18974;50.838;4.636;2023-03-19T00:23:55;5.30;;;3.47;;
32535;SDS011;18974;50.838;4.636;2023-03-19T00:26:26;9.35;;;3.20;;
32535;SDS011;18974;50.838;4.636;2023-03-19T00:28:53;6.55;;;3.80;;
32535;SDS011;18974;50.838;4.636;2023-03-19T00:31:20;6.15;;;3.10;;
32535;SDS011;18974;50.838;4.636;2023-03-19T00:33:45;6.20;;;3.15;;
32535;SDS011;18974;50.838;4.636;2023-03-19T00:36:11;6.22;;;3.70;;
32535;SDS011;18974;50.838;4.636;2023-03-19T00:38:37;9.25;;;3.53;;
32535;SDS011;18974;50.838;4.636;2023-03-19T00:41:04;8.88;;;3.53;;
32535;SDS011;18974;50.838;4.636;2023-03-19T00:43:31;5.82;;;3.58;;
32535;SDS011;18974;50.838;4.636;2023-03-19T00:45:57;4.53;;;3.17;;
32535;SDS011;18974;50.838;4.636;2023-03-19T00:48:23;4.80;;;3.17;;
32535;SDS011;18974;50.838;4.636;2023-03-19T00:50:48;6.82;;;3.08;;
32535;SDS011;18974;50.838;4.636;2023-03-19T00:53:14;7.53;;;3.40;;
32535;SDS011;18974;50.838;4.636;2023-03-19T00:55:41;4.78;;;2.80;;
32535;SDS011;18974;50.838;4.636;2023-03-19T00:58:06;5.45;;;2.80;;
32535;SDS011;18974;50.838;4.636;2023-03-19T01:00:34;4.72;;;2.78;;
32535;SDS011;18974;50.838;4.636;2023-03-19T01:03:00;6.03;;;2.42;;
32535;SDS011;18974;50.838;4.636;2023-03-19T01:05:26;5.03;;;3.05;;
32535;SDS011;18974;50.838;4.636;2023-03-19T01:07:52;7.45;;;2.92;;
32535;SDS011;18974;50.838;4.636;2023-03-19T01:10:18;4.43;;;2.60;;
32535;SDS011;18974;50.838;4.636;2023-03-19T01:12:45;8.10;;;3.33;;
32535;SDS011;18974;50.838;4.636;2023-03-19T01:15:11;6.00;;;2.90;;
32535;SDS011;18974;50.838;4.636;2023-03-19T01:17:37;5.78;;;3.17;;
32535;SDS011;18974;50.838;4.636;2023-03-19T01:20:03;6.85;;;2.95;;
32535;SDS011;18974;50.838;4.636;2023-03-19T01:22:34;7.55;;;2.97;;
32535;SDS011;18974;50.838;4.636;2023-03-19T01:25:01;5.22;;;2.78;;
32535;SDS011;18974;50.838;4.636;2023-03-19T01:27:28;8.88;;;2.88;;
32535;SDS011;18974;50.838;4.636;2023-03-19T01:29:54;6.40;;;3.15;;
32535;SDS011;18974;50.838;4.636;2023-03-19T01:32:19;6.45;;;2.85;;
32535;SDS011;18974;50.838;4.636;2023-03-19T01:34:45;5.15;;;2.72;;
32535;SDS011;18974;50.838;4.636;2023-03-19T01:37:11;4.35;;;2.92;;
32535;SDS011;18974;50.838;4.636;2023-03-19T01:39:36;5.22;;;3.00;;
32535;SDS011;18974;50.838;4.636;2023-03-19T01:42:02;5.82;;;2.85;;
32535;SDS011;18974;50.838;4.636;2023-03-19T01:44:30;4.32;;;3.10;;
32535;SDS011;18974;50.838;4.636;2023-03-19T01:47:00;9.68;;;3.00;;
32535;SDS011;18974;50.838;4.636;2023-03-19T01:49:31;4.30;;;2.90;;
32535;SDS011;18974;50.838;4.636;2023-03-19T01:51:58;6.38;;;3.00;;
32535;SDS011;18974;50.838;4.636;2023-03-19T01:54:26;7.50;;;3.58;;
32535;SDS011;18974;50.838;4.636;2023-03-19T01:56:57;8.70;;;3.42;;
32535;SDS011;18974;50.838;4.636;2023-03-19T01:59:40;6.82;;;3.72;;
32535;SDS011;18974;50.838;4.636;2023-03-19T02:02:09;6.60;;;3.13;;
32535;SDS011;18974;50.838;4.636;2023-03-19T02:04:48;7.22;;;3.38;;
32535;SDS011;18974;50.838;4.636;2023-03-19T02:07:17;5.55;;;3.53;;
32535;SDS011;18974;50.838;4.636;2023-03-19T02:09:44;6.28;;;3.40;;
32535;SDS011;18974;50.838;4.636;2023-03-19T02:12:10;7.00;;;3.30;;
32535;SDS011;18974;50.838;4.636;2023-03-19T02:14:37;4.88;;;3.35;;
32535;SDS011;18974;50.838;4.636;2023-03-19T02:17:03;6.57;;;3.45;;
32535;SDS011;18974;50.838;4.636;2023-03-19T02:19:36;6.10;;;3.75;;
32535;SDS011;18974;50.838;4.636;2023-03-19T02:22:12;5.82;;;3.35;;
32535;SDS011;18974;50.838;4.636;2023-03-19T02:24:44;7.22;;;4.20;;
32535;SDS011;18974;50.838;4.636;2023-03-19T02:27:16;6.38;;;3.83;;
32535;SDS011;18974;50.838;4.636;2023-03-19T02:29:42;5.88;;;4.00;;
32535;SDS011;18974;50.838;4.636;2023-03-19T02:32:07;11.98;;;5.03;;
32535;SDS011;18974;50.838;4.636;2023-03-19T02:34:37;6.78;;;4.07;;
32535;SDS011;18974;50.838;4.636;2023-03-19T02:39:45;9.10;;;4.20;;
32535;SDS011;18974;50.838;4.636;2023-03-19T02:42:21;10.73;;;4.18;;
32535;SDS011;18974;50.838;4.636;2023-03-19T02:44:48;8.48;;;4.32;;
32535;SDS011;18974;50.838;4.636;2023-03-19T02:47:14;8.93;;;4.68;;
32535;SDS011;18974;50.838;4.636;2023-03-19T02:49:41;7.50;;;5.35;;
32535;SDS011;18974;50.838;4.636;2023-03-19T02:52:06;10.13;;;5.03;;
32535;SDS011;18974;50.838;4.636;2023-03-19T02:54:32;8.65;;;5.18;;
32535;SDS011;18974;50.838;4.636;2023-03-19T02:56:58;7.97;;;5.35;;
32535;SDS011;18974;50.838;4.636;2023-03-19T02:59:24;8.85;;;5.63;;
32535;SDS011;18974;50.838;4.636;2023-03-19T03:01:50;6.53;;;4.72;;
32535;SDS011;18974;50.838;4.636;2023-03-19T03:04:16;9.40;;;5.53;;
32535;SDS011;18974;50.838;4.636;2023-03-19T03:06:42;7.43;;;5.20;;
32535;SDS011;18974;50.838;4.636;2023-03-19T03:09:08;6.90;;;6.00;;
32535;SDS011;18974;50.838;4.636;2023-03-19T03:11:35;10.32;;;5.82;;
32535;SDS011;18974;50.838;4.636;2023-03-19T03:14:01;11.15;;;6.45;;
32535;SDS011;18974;50.838;4.636;2023-03-19T03:16:27;9.60;;;6.13;;
32535;SDS011;18974;50.838;4.636;2023-03-19T03:18:53;10.02;;;6.15;;
32535;SDS011;18974;50.838;4.636;2023-03-19T03:21:18;9.77;;;6.45;;
32535;SDS011;18974;50.838;4.636;2023-03-19T03:23:45;9.50;;;7.18;;
32535;SDS011;18974;50.838;4.636;2023-03-19T03:26:12;9.70;;;6.72;;
32535;SDS011;18974;50.838;4.636;2023-03-19T03:28:38;11.60;;;7.30;;
32535;SDS011;18974;50.838;4.636;2023-03-19T03:31:04;10.55;;;8.05;;
32535;SDS011;18974;50.838;4.636;2023-03-19T03:33:30;11.45;;;7.60;;
32535;SDS011;18974;50.838;4.636;2023-03-19T03:35:55;10.85;;;7.20;;
32535;SDS011;18974;50.838;4.636;2023-03-19T03:38:21;12.52;;;7.68;;
32535;SDS011;18974;50.838;4.636;2023-03-19T03:40:50;12.85;;;7.72;;
32535;SDS011;18974;50.838;4.636;2023-03-19T03:43:16;11.00;;;7.88;;
32535;SDS011;18974;50.838;4.636;2023-03-19T03:45:43;10.35;;;8.00;;
32535;SDS011;18974;50.838;4.636;2023-03-19T03:48:09;11.45;;;8.70;;
32535;SDS011;18974;50.838;4.636;2023-03-19T03:50:35;14.45;;;8.98;;
32535;SDS011;18974;50.838;4.636;2023-03-19T03:53:02;12.27;;;8.75;;
32535;SDS011;18974;50.838;4.636;2023-03-19T03:55:28;14.60;;;9.73;;
32535;SDS011;18974;50.838;4.636;2023-03-19T03:57:55;12.27;;;9.43;;
32535;SDS011;18974;50.838;4.636;2023-03-19T04:00:21;13.77;;;9.45;;
32535;SDS011;18974;50.838;4.636;2023-03-19T04:02:48;15.80;;;9.93;;
32535;SDS011;18974;50.838;4.636;2023-03-19T04:05:14;13.98;;;9.90;;
32535;SDS011;18974;50.838;4.636;2023-03-19T04:07:40;13.77;;;10.07;;
32535;SDS011;18974;50.838;4.636;2023-03-19T04:10:07;14.75;;;10.25;;
32535;SDS011;18974;50.838;4.636;2023-03-19T04:12:35;14.10;;;10.48;;
32535;SDS011;18974;50.838;4.636;2023-03-19T04:15:06;15.30;;;11.48;;
32535;SDS011;18974;50.838;4.636;2023-03-19T04:17:33;16.05;;;11.00;;
32535;SDS011;18974;50.838;4.636;2023-03-19T04:19:59;17.52;;;11.82;;
32535;SDS011;18974;50.838;4.636;2023-03-19T04:22:26;17.52;;;11.93;;
32535;SDS011;18974;50.838;4.636;2023-03-19T04:24:52;15.80;;;11.45;;
32535;SDS011;18974;50.838;4.636;2023-03-19T04:27:18;18.60;;;12.23;;
32535;SDS011;18974;50.838;4.636;2023-03-19T04:29:44;18.90;;;12.18;;
32535;SDS011;18974;50.838;4.636;2023-03-19T04:32:10;15.98;;;11.45;;
32535;SDS011;18974;50.838;4.636;2023-03-19T04:34:36;14.88;;;11.13;;
32535;SDS011;18974;50.838;4.636;2023-03-19T04:37:02;15.55;;;12.00;;
32535;SDS011;18974;50.838;4.636;2023-03-19T04:39:28;16.08;;;11.35;;
32535;SDS011;18974;50.838;4.636;2023-03-19T04:41:53;13.95;;;11.05;;
32535;SDS011;18974;50.838;4.636;2023-03-19T04:44:19;14.70;;;10.35;;
32535;SDS011;18974;50.838;4.636;2023-03-19T04:46:45;19.67;;;11.50;;
32535;SDS011;18974;50.838;4.636;2023-03-19T04:49:11;16.33;;;10.98;;
32535;SDS011;18974;50.838;4.636;2023-03-19T04:51:37;16.38;;;10.98;;
32535;SDS011;18974;50.838;4.636;2023-03-19T04:54:03;16.17;;;11.10;;
32535;SDS011;18974;50.838;4.636;2023-03-19T04:56:29;13.55;;;10.77;;
32535;SDS011;18974;50.838;4.636;2023-03-19T04:58:55;14.02;;;10.18;;
32535;SDS011;18974;50.838;4.636;2023-03-19T05:01:21;16.83;;;11.75;;
32535;SDS011;18974;50.838;4.636;2023-03-19T05:03:47;14.50;;;10.18;;
32535;SDS011;18974;50.838;4.636;2023-03-19T05:06:12;19.45;;;12.02;;
32535;SDS011;18974;50.838;4.636;2023-03-19T05:08:38;15.60;;;11.48;;
32535;SDS011;18974;50.838;4.636;2023-03-19T05:11:04;19.95;;;11.13;;
32535;SDS011;18974;50.838;4.636;2023-03-19T05:13:30;15.13;;;10.65;;
32535;SDS011;18974;50.838;4.636;2023-03-19T05:15:55;15.02;;;9.80;;
32535;SDS011;18974;50.838;4.636;2023-03-19T05:18:21;14.50;;;9.93;;
32535;SDS011;18974;50.838;4.636;2023-03-19T05:20:47;16.55;;;9.82;;
32535;SDS011;18974;50.838;4.636;2023-03-19T05:23:13;19.02;;;10.00;;
32535;SDS011;18974;50.838;4.636;2023-03-19T05:25:39;15.98;;;10.40;;
32535;SDS011;18974;50.838;4.636;2023-03-19T05:28:05;14.30;;;9.85;;
32535;SDS011;18974;50.838;4.636;2023-03-19T05:30:32;17.10;;;10.70;;
32535;SDS011;18974;50.838;4.636;2023-03-19T05:32:58;20.75;;;11.88;;
32535;SDS011;18974;50.838;4.636;2023-03-19T05:35:24;17.02;;;10.43;;
32535;SDS011;18974;50.838;4.636;2023-03-19T05:37:53;13.95;;;10.38;;
32535;SDS011;18974;50.838;4.636;2023-03-19T05:40:19;17.92;;;10.65;;
32535;SDS011;18974;50.838;4.636;2023-03-19T05:42:46;19.27;;;11.23;;
32535;SDS011;18974;50.838;4.636;2023-03-19T05:45:12;17.20;;;11.13;;
32535;SDS011;18974;50.838;4.636;2023-03-19T05:47:38;16.88;;;10.82;;
32535;SDS011;18974;50.838;4.636;2023-03-19T05:50:04;16.98;;;10.98;;
32535;SDS011;18974;50.838;4.636;2023-03-19T05:52:31;17.98;;;10.80;;
32535;SDS011;18974;50.838;4.636;2023-03-19T05:54:57;17.35;;;11.10;;
32535;SDS011;18974;50.838;4.636;2023-03-19T05:57:23;18.63;;;11.55;;
32535;SDS011;18974;50.838;4.636;2023-03-19T05:59:48;20.17;;;11.32;;
32535;SDS011;18974;50.838;4.636;2023-03-19T06:02:14;21.15;;;12.50;;
32535;SDS011;18974;50.838;4.636;2023-03-19T06:04:40;19.75;;;12.68;;
32535;SDS011;18974;50.838;4.636;2023-03-19T06:07:06;20.92;;;11.60;;
32535;SDS011;18974;50.838;4.636;2023-03-19T06:09:31;23.20;;;12.55;;
32535;SDS011;18974;50.838;4.636;2023-03-19T06:11:57;21.95;;;12.18;;
32535;SDS011;18974;50.838;4.636;2023-03-19T06:14:23;17.58;;;11.20;;
32535;SDS011;18974;50.838;4.636;2023-03-19T06:16:49;21.15;;;10.00;;
32535;SDS011;18974;50.838;4.636;2023-03-19T06:19:15;16.58;;;10.45;;
32535;SDS011;18974;50.838;4.636;2023-03-19T06:21:41;19.58;;;10.25;;
32535;SDS011;18974;50.838;4.636;2023-03-19T06:24:06;15.90;;;9.43;;
32535;SDS011;18974;50.838;4.636;2023-03-19T06:26:32;18.85;;;10.15;;
32535;SDS011;18974;50.838;4.636;2023-03-19T06:28:58;14.77;;;9.77;;
32535;SDS011;18974;50.838;4.636;2023-03-19T06:31:24;17.55;;;9.48;;
32535;SDS011;18974;50.838;4.636;2023-03-19T06:33:51;16.63;;;9.18;;
32535;SDS011;18974;50.838;4.636;2023-03-19T06:36:17;13.55;;;8.57;;
32535;SDS011;18974;50.838;4.636;2023-03-19T06:38:43;15.75;;;9.20;;
32535;SDS011;18974;50.838;4.636;2023-03-19T06:41:09;14.60;;;8.73;;
32535;SDS011;18974;50.838;4.636;2023-03-19T06:43:35;16.63;;;9.52;;
32535;SDS011;18974;50.838;4.636;2023-03-19T06:46:04;19.35;;;9.23;;
32535;SDS011;18974;50.838;4.636;2023-03-19T06:48:31;18.83;;;9.05;;
32535;SDS011;18974;50.838;4.636;2023-03-19T06:50:57;19.23;;;9.80;;
32535;SDS011;18974;50.838;4.636;2023-03-19T06:53:23;14.82;;;9.60;;
32535;SDS011;18974;50.838;4.636;2023-03-19T06:55:48;16.00;;;9.05;;
32535;SDS011;18974;50.838;4.636;2023-03-19T06:58:14;18.40;;;10.40;;
32535;SDS011;18974;50.838;4.636;2023-03-19T07:00:39;15.98;;;9.48;;
32535;SDS011;18974;50.838;4.636;2023-03-19T07:03:05;20.45;;;10.65;;
32535;SDS011;18974;50.838;4.636;2023-03-19T07:05:31;15.95;;;10.15;;
32535;SDS011;18974;50.838;4.636;2023-03-19T07:07:57;17.33;;;9.23;;
32535;SDS011;18974;50.838;4.636;2023-03-19T07:10:23;15.55;;;10.07;;
32535;SDS011;18974;50.838;4.636;2023-03-19T07:12:48;19.45;;;10.38;;
32535;SDS011;18974;50.838;4.636;2023-03-19T07:15:14;15.90;;;10.00;;
32535;SDS011;18974;50.838;4.636;2023-03-19T07:17:41;24.25;;;12.77;;
32535;SDS011;18974;50.838;4.636;2023-03-19T07:20:10;23.30;;;11.52;;
32535;SDS011;18974;50.838;4.636;2023-03-19T07:22:36;21.25;;;11.98;;
32535;SDS011;18974;50.838;4.636;2023-03-19T07:25:02;28.17;;;13.98;;
32535;SDS011;18974;50.838;4.636;2023-03-19T07:27:27;28.30;;;14.40;;
32535;SDS011;18974;50.838;4.636;2023-03-19T07:29:53;33.83;;;17.20;;
32535;SDS011;18974;50.838;4.636;2023-03-19T07:32:19;34.22;;;15.18;;
32535;SDS011;18974;50.838;4.636;2023-03-19T07:34:46;43.45;;;17.40;;
32535;SDS011;18974;50.838;4.636;2023-03-19T07:42:22;26.90;;;14.65;;
32535;SDS011;18974;50.838;4.636;2023-03-19T07:44:50;27.45;;;15.38;;
32535;SDS011;18974;50.838;4.636;2023-03-19T07:47:15;29.58;;;14.73;;
32535;SDS011;18974;50.838;4.636;2023-03-19T07:49:41;29.30;;;14.52;;
32535;SDS011;18974;50.838;4.636;2023-03-19T07:52:07;32.17;;;17.02;;
32535;SDS011;18974;50.838;4.636;2023-03-19T07:54:33;34.25;;;16.75;;
32535;SDS011;18974;50.838;4.636;2023-03-19T07:56:58;33.10;;;15.70;;
32535;SDS011;18974;50.838;4.636;2023-03-19T07:59:25;32.00;;;15.05;;
32535;SDS011;18974;50.838;4.636;2023-03-19T08:01:51;31.98;;;13.95;;
32535;SDS011;18974;50.838;4.636;2023-03-19T08:04:16;32.60;;;14.77;;
32535;SDS011;18974;50.838;4.636;2023-03-19T08:06:42;31.42;;;13.32;;
32535;SDS011;18974;50.838;4.636;2023-03-19T08:09:08;32.78;;;13.65;;
32535;SDS011;18974;50.838;4.636;2023-03-19T08:11:33;29.13;;;10.98;;
32535;SDS011;18974;50.838;4.636;2023-03-19T08:13:59;28.05;;;12.43;;
32535;SDS011;18974;50.838;4.636;2023-03-19T08:16:25;28.52;;;11.70;;
32535;SDS011;18974;50.838;4.636;2023-03-19T08:18:51;30.77;;;11.23;;
32535;SDS011;18974;50.838;4.636;2023-03-19T08:21:16;19.13;;;9.63;;
32535;SDS011;18974;50.838;4.636;2023-03-19T08:23:42;19.20;;;9.45;;
32535;SDS011;18974;50.838;4.636;2023-03-19T08:26:08;23.52;;;9.98;;
32535;SDS011;18974;50.838;4.636;2023-03-19T08:28:33;20.88;;;8.18;;
32535;SDS011;18974;50.838;4.636;2023-03-19T08:31:09;19.38;;;8.77;;
32535;SDS011;18974;50.838;4.636;2023-03-19T08:33:37;20.88;;;7.15;;
32535;SDS011;18974;50.838;4.636;2023-03-19T08:36:04;21.27;;;7.47;;
32535;SDS011;18974;50.838;4.636;2023-03-19T08:38:31;22.15;;;8.25;;
32535;SDS011;18974;50.838;4.636;2023-03-19T08:40:57;26.00;;;7.47;;
32535;SDS011;18974;50.838;4.636;2023-03-19T08:43:26;16.38;;;6.65;;
32535;SDS011;18974;50.838;4.636;2023-03-19T08:45:52;18.65;;;6.35;;
32535;SDS011;18974;50.838;4.636;2023-03-19T08:48:18;23.92;;;5.80;;
32535;SDS011;18974;50.838;4.636;2023-03-19T08:50:43;14.35;;;5.70;;
32535;SDS011;18974;50.838;4.636;2023-03-19T08:53:09;18.95;;;5.95;;
32535;SDS011;18974;50.838;4.636;2023-03-19T08:55:35;15.77;;;4.53;;
32535;SDS011;18974;50.838;4.636;2023-03-19T08:58:00;17.05;;;5.20;;
32535;SDS011;18974;50.838;4.636;2023-03-19T09:00:26;21.20;;;4.72;;
32535;SDS011;18974;50.838;4.636;2023-03-19T09:02:51;12.80;;;4.85;;
32535;SDS011;18974;50.838;4.636;2023-03-19T09:05:17;17.17;;;4.45;;
32535;SDS011;18974;50.838;4.636;2023-03-19T09:07:46;15.65;;;3.92;;
32535;SDS011;18974;50.838;4.636;2023-03-19T09:10:12;15.63;;;4.43;;
32535;SDS011;18974;50.838;4.636;2023-03-19T09:12:40;19.33;;;4.35;;
32535;SDS011;18974;50.838;4.636;2023-03-19T09:15:06;14.80;;;4.53;;
32535;SDS011;18974;50.838;4.636;2023-03-19T09:17:31;13.50;;;4.30;;
32535;SDS011;18974;50.838;4.636;2023-03-19T09:19:57;13.93;;;4.18;;
32535;SDS011;18974;50.838;4.636;2023-03-19T09:22:23;10.43;;;3.22;;
32535;SDS011;18974;50.838;4.636;2023-03-19T09:24:48;16.48;;;4.00;;
32535;SDS011;18974;50.838;4.636;2023-03-19T09:27:14;16.77;;;4.25;;
32535;SDS011;18974;50.838;4.636;2023-03-19T09:29:40;14.90;;;3.45;;
32535;SDS011;18974;50.838;4.636;2023-03-19T09:32:06;15.02;;;2.92;;
32535;SDS011;18974;50.838;4.636;2023-03-19T09:34:32;9.82;;;2.72;;
32535;SDS011;18974;50.838;4.636;2023-03-19T09:36:57;14.38;;;3.33;;
32535;SDS011;18974;50.838;4.636;2023-03-19T09:39:23;13.10;;;3.05;;
32535;SDS011;18974;50.838;4.636;2023-03-19T09:42:08;14.43;;;3.33;;
32535;SDS011;18974;50.838;4.636;2023-03-19T09:44:54;15.00;;;3.22;;
32535;SDS011;18974;50.838;4.636;2023-03-19T09:47:33;16.42;;;3.13;;
32535;SDS011;18974;50.838;4.636;2023-03-19T09:50:02;15.95;;;3.13;;
32535;SDS011;18974;50.838;4.636;2023-03-19T09:58:04;12.45;;;3.65;;
32535;SDS011;18974;50.838;4.636;2023-03-19T10:00:53;10.77;;;2.80;;
32535;SDS011;18974;50.838;4.636;2023-03-19T10:03:29;16.27;;;3.30;;
32535;SDS011;18974;50.838;4.636;2023-03-19T10:17:10;9.93;;;2.85;;
32535;SDS011;18974;50.838;4.636;2023-03-19T10:19:43;11.65;;;3.03;;
32535;SDS011;18974;50.838;4.636;2023-03-19T10:22:14;15.00;;;3.35;;
32535;SDS011;18974;50.838;4.636;2023-03-19T10:24:48;20.00;;;3.40;;
32535;SDS011;18974;50.838;4.636;2023-03-19T10:27:20;11.93;;;3.17;;
32535;SDS011;18974;50.838;4.636;2023-03-19T10:29:47;11.95;;;3.05;;
32535;SDS011;18974;50.838;4.636;2023-03-19T10:34:48;16.48;;;3.08;;
32535;SDS011;18974;50.838;4.636;2023-03-19T10:37:19;12.57;;;2.90;;
32535;SDS011;18974;50.838;4.636;2023-03-19T10:39:50;14.65;;;2.35;;
32535;SDS011;18974;50.838;4.636;2023-03-19T10:47:52;7.30;;;2.15;;
32535;SDS011;18974;50.838;4.636;2023-03-19T10:50:21;8.18;;;2.00;;
32535;SDS011;18974;50.838;4.636;2023-03-19T10:53:02;8.75;;;1.95;;
32535;SDS011;18974;50.838;4.636;2023-03-19T10:55:50;6.30;;;1.83;;
32535;SDS011;18974;50.838;4.636;2023-03-19T10:58:25;8.87;;;2.60;;
32535;SDS011;18974;50.838;4.636;2023-03-19T11:01:11;12.18;;;3.42;;
32535;SDS011;18974;50.838;4.636;2023-03-19T11:03:50;11.52;;;3.90;;
32535;SDS011;18974;50.838;4.636;2023-03-19T11:06:33;17.95;;;4.88;;
32535;SDS011;18974;50.838;4.636;2023-03-19T11:11:42;17.00;;;6.72;;
32535;SDS011;18974;50.838;4.636;2023-03-19T11:14:18;16.73;;;7.47;;
32535;SDS011;18974;50.838;4.636;2023-03-19T11:17:01;18.30;;;6.88;;
32535;SDS011;18974;50.838;4.636;2023-03-19T11:19:32;16.38;;;6.57;;
32535;SDS011;18974;50.838;4.636;2023-03-19T11:22:11;16.73;;;5.30;;
32535;SDS011;18974;50.838;4.636;2023-03-19T11:24:42;15.90;;;4.90;;
32535;SDS011;18974;50.838;4.636;2023-03-19T11:27:16;13.32;;;4.13;;
32535;SDS011;18974;50.838;4.636;2023-03-19T11:29:43;15.70;;;3.65;;
32535;SDS011;18974;50.838;4.636;2023-03-19T11:35:05;11.95;;;2.92;;
32535;SDS011;18974;50.838;4.636;2023-03-19T11:40:33;15.02;;;3.50;;
32535;SDS011;18974;50.838;4.636;2023-03-19T11:49:04;17.48;;;4.10;;
32535;SDS011;18974;50.838;4.636;2023-03-19T11:51:46;12.30;;;3.38;;
32535;SDS011;18974;50.838;4.636;2023-03-19T11:57:18;15.55;;;3.13;;
32535;SDS011;18974;50.838;4.636;2023-03-19T12:00:02;11.68;;;2.30;;
32535;SDS011;18974;50.838;4.636;2023-03-19T12:02:42;13.45;;;2.55;;
32535;SDS011;18974;50.838;4.636;2023-03-19T12:05:31;9.00;;;2.15;;
32535;SDS011;18974;50.838;4.636;2023-03-19T12:13:53;13.27;;;2.65;;
32535;SDS011;18974;50.838;4.636;2023-03-19T12:25:07;14.63;;;3.03;;
32535;SDS011;18974;50.838;4.636;2023-03-19T12:33:21;14.98;;;4.00;;
32535;SDS011;18974;50.838;4.636;2023-03-19T12:41:02;14.43;;;4.18;;
32535;SDS011;18974;50.838;4.636;2023-03-19T12:46:13;11.90;;;4.35;;
32535;SDS011;18974;50.838;4.636;2023-03-19T12:48:48;9.90;;;4.47;;
32535;SDS011;18974;50.838;4.636;2023-03-19T12:51:25;33.88;;;5.10;;
32535;SDS011;18974;50.838;4.636;2023-03-19T12:54:17;8.73;;;3.83;;
32535;SDS011;18974;50.838;4.636;2023-03-19T12:56:54;13.32;;;4.35;;
32535;SDS011;18974;50.838;4.636;2023-03-19T12:59:45;11.63;;;3.60;;
32535;SDS011;18974;50.838;4.636;2023-03-19T13:02:21;9.15;;;3.83;;
32535;SDS011;18974;50.838;4.636;2023-03-19T13:07:37;8.52;;;3.63;;
32535;SDS011;18974;50.838;4.636;2023-03-19T13:10:08;7.70;;;3.67;;
32535;SDS011;18974;50.838;4.636;2023-03-19T13:12:46;6.93;;;3.42;;
32535;SDS011;18974;50.838;4.636;2023-03-19T13:18:13;6.80;;;3.65;;
32535;SDS011;18974;50.838;4.636;2023-03-19T13:23:44;6.82;;;3.63;;
32535;SDS011;18974;50.838;4.636;2023-03-19T13:26:13;5.90;;;3.38;;
32535;SDS011;18974;50.838;4.636;2023-03-19T13:28:54;7.00;;;3.75;;
32535;SDS011;18974;50.838;4.636;2023-03-19T13:31:35;9.23;;;4.18;;
32535;SDS011;18974;50.838;4.636;2023-03-19T13:34:06;7.53;;;3.75;;
32535;SDS011;18974;50.838;4.636;2023-03-19T13:37:07;9.15;;;4.25;;
32535;SDS011;18974;50.838;4.636;2023-03-19T13:39:42;10.05;;;4.65;;
32535;SDS011;18974;50.838;4.636;2023-03-19T13:42:21;9.02;;;4.70;;
32535;SDS011;18974;50.838;4.636;2023-03-19T13:45:00;10.18;;;5.05;;
32535;SDS011;18974;50.838;4.636;2023-03-19T13:52:33;7.28;;;4.35;;
32535;SDS011;18974;50.838;4.636;2023-03-19T13:57:56;9.90;;;4.68;;
32535;SDS011;18974;50.838;4.636;2023-03-19T14:03:21;8.80;;;3.50;;
32535;SDS011;18974;50.838;4.636;2023-03-19T14:05:50;7.05;;;4.05;;
32535;SDS011;18974;50.838;4.636;2023-03-19T14:08:19;6.70;;;4.05;;
32535;SDS011;18974;50.838;4.636;2023-03-19T14:10:57;10.68;;;5.80;;
32535;SDS011;18974;50.838;4.636;2023-03-19T14:13:31;12.35;;;6.30;;
32535;SDS011;18974;50.838;4.636;2023-03-19T14:16:04;14.35;;;7.38;;
32535;SDS011;18974;50.838;4.636;2023-03-19T14:18:41;13.82;;;7.32;;
32535;SDS011;18974;50.838;4.636;2023-03-19T14:21:15;12.70;;;7.05;;
32535;SDS011;18974;50.838;4.636;2023-03-19T14:23:55;16.00;;;8.65;;
32535;SDS011;18974;50.838;4.636;2023-03-19T14:29:17;20.17;;;9.80;;
32535;SDS011;18974;50.838;4.636;2023-03-19T14:31:48;12.73;;;7.95;;
32535;SDS011;18974;50.838;4.636;2023-03-19T14:34:31;13.90;;;8.65;;
32535;SDS011;18974;50.838;4.636;2023-03-19T14:39:27;12.82;;;6.70;;
32535;SDS011;18974;50.838;4.636;2023-03-19T14:42:19;11.32;;;6.28;;
32535;SDS011;18974;50.838;4.636;2023-03-19T14:56:32;5.60;;;3.40;;
32535;SDS011;18974;50.838;4.636;2023-03-19T14:58:59;6.88;;;3.53;;
32535;SDS011;18974;50.838;4.636;2023-03-19T15:01:28;6.03;;;3.80;;
32535;SDS011;18974;50.838;4.636;2023-03-19T15:03:56;6.22;;;4.20;;
32535;SDS011;18974;50.838;4.636;2023-03-19T15:06:24;7.72;;;4.05;;
32535;SDS011;18974;50.838;4.636;2023-03-19T15:08:59;8.02;;;4.82;;
32535;SDS011;18974;50.838;4.636;2023-03-19T15:17:16;8.57;;;5.82;;
32535;SDS011;18974;50.838;4.636;2023-03-19T15:19:51;8.43;;;4.90;;
32535;SDS011;18974;50.838;4.636;2023-03-19T15:22:20;7.90;;;4.68;;
32535;SDS011;18974;50.838;4.636;2023-03-19T15:24:50;8.30;;;5.00;;
32535;SDS011;18974;50.838;4.636;2023-03-19T15:27:17;7.10;;;4.82;;
32535;SDS011;18974;50.838;4.636;2023-03-19T15:29:44;8.18;;;5.80;;
32535;SDS011;18974;50.838;4.636;2023-03-19T15:32:10;8.65;;;5.07;;
32535;SDS011;18974;50.838;4.636;2023-03-19T15:34:35;10.65;;;5.05;;
32535;SDS011;18974;50.838;4.636;2023-03-19T15:37:11;10.65;;;4.75;;
32535;SDS011;18974;50.838;4.636;2023-03-19T15:39:40;7.50;;;5.38;;
32535;SDS011;18974;50.838;4.636;2023-03-19T15:42:10;8.90;;;4.65;;
32535;SDS011;18974;50.838;4.636;2023-03-19T15:44:51;10.23;;;4.43;;
32535;SDS011;18974;50.838;4.636;2023-03-19T15:47:29;9.85;;;3.53;;
32535;SDS011;18974;50.838;4.636;2023-03-19T15:50:07;4.55;;;2.58;;
32535;SDS011;18974;50.838;4.636;2023-03-19T15:52:39;5.30;;;2.58;;
32535;SDS011;18974;50.838;4.636;2023-03-19T15:55:06;3.75;;;2.53;;
32535;SDS011;18974;50.838;4.636;2023-03-19T15:57:35;4.47;;;2.17;;
32535;SDS011;18974;50.838;4.636;2023-03-19T16:00:03;4.25;;;2.28;;
32535;SDS011;18974;50.838;4.636;2023-03-19T16:02:34;7.28;;;2.55;;
32535;SDS011;18974;50.838;4.636;2023-03-19T16:05:04;4.03;;;2.28;;
32535;SDS011;18974;50.838;4.636;2023-03-19T16:09:56;5.15;;;2.40;;
32535;SDS011;18974;50.838;4.636;2023-03-19T16:12:36;5.28;;;2.63;;
32535;SDS011;18974;50.838;4.636;2023-03-19T16:20:43;5.18;;;2.78;;
32535;SDS011;18974;50.838;4.636;2023-03-19T16:23:30;5.15;;;3.08;;
32535;SDS011;18974;50.838;4.636;2023-03-19T16:26:04;3.80;;;2.88;;
32535;SDS011;18974;50.838;4.636;2023-03-19T16:28:45;5.63;;;2.67;;
32535;SDS011;18974;50.838;4.636;2023-03-19T16:31:24;8.60;;;3.60;;
32535;SDS011;18974;50.838;4.636;2023-03-19T16:33:53;8.20;;;3.40;;
32535;SDS011;18974;50.838;4.636;2023-03-19T16:36:21;6.10;;;4.45;;
32535;SDS011;18974;50.838;4.636;2023-03-19T16:38:54;4.78;;;3.55;;
32535;SDS011;18974;50.838;4.636;2023-03-19T16:41:39;6.38;;;3.55;;
32535;SDS011;18974;50.838;4.636;2023-03-19T16:44:11;8.02;;;4.80;;
32535;SDS011;18974;50.838;4.636;2023-03-19T16:46:41;7.47;;;3.70;;
32535;SDS011;18974;50.838;4.636;2023-03-19T16:49:07;8.13;;;4.32;;
32535;SDS011;18974;50.838;4.636;2023-03-19T16:51:32;5.22;;;3.75;;
32535;SDS011;18974;50.838;4.636;2023-03-19T16:53:59;6.15;;;4.40;;
32535;SDS011;18974;50.838;4.636;2023-03-19T16:56:25;9.48;;;4.25;;